createdAt,value
2022-12-31T00:00:14.179Z,100673.02
2022-12-31T00:05:38.136Z,100663.78
2022-12-31T00:10:41.747Z,100653.27
2022-12-31T00:15:45.238Z,100647.99
2022-12-31T00:20:47.979Z,100640.30
2022-12-31T00:25:50.748Z,100626.98
2022-12-31T00:30:53.567Z,100625.67
2022-12-31T00:36:10.601Z,100613.25
2022-12-31T00:41:13.703Z,100609.73
2022-12-31T00:46:16.905Z,100611.77
2022-12-31T00:51:22.074Z,100611.77
2022-12-31T00:56:27.697Z,100606.66
2022-12-31T01:01:34.079Z,100603.79
2022-12-31T01:06:36.976Z,100595.81
2022-12-31T01:11:39.859Z,100578.84
2022-12-31T01:16:45.183Z,100567.30
2022-12-31T01:21:48.430Z,100554.51
2022-12-31T01:26:51.852Z,100554.35
2022-12-31T01:31:54.812Z,100550.00
2022-12-31T01:36:57.521Z,100550.26
2022-12-31T01:42:00.285Z,100552.98
2022-12-31T01:47:03.477Z,100550.66
2022-12-31T01:52:18.327Z,100541.56
2022-12-31T01:57:22.183Z,100528.77
2022-12-31T02:02:25.106Z,100519.93
2022-12-31T02:07:28.106Z,100506.92
2022-12-31T02:12:30.971Z,100488.83
2022-12-31T02:17:58.530Z,100484.82
2022-12-31T02:23:46.331Z,100489.39
2022-12-31T02:29:23.201Z,100480.83
2022-12-31T02:34:51.662Z,100470.94
2022-12-31T02:39:54.448Z,100451.61
2022-12-31T02:44:57.188Z,100461.23
2022-12-31T02:50:18.803Z,100451.36
2022-12-31T02:55:47.360Z,100452.87
2022-12-31T03:01:12.102Z,100462.10
2022-12-31T03:06:15.082Z,100456.54
2022-12-31T03:11:37.748Z,100445.98
2022-12-31T03:16:40.526Z,100448.44
2022-12-31T03:22:02.621Z,100465.38
2022-12-31T03:27:05.446Z,100468.57
2022-12-31T03:32:08.195Z,100459.89
2022-12-31T03:37:11.035Z,100451.20
2022-12-31T03:42:15.225Z,100446.38
2022-12-31T03:47:18.091Z,100457.23
2022-12-31T03:52:22.305Z,100459.33
2022-12-31T03:57:25.145Z,100461.70
2022-12-31T04:02:29.206Z,100463.40
2022-12-31T04:07:32.501Z,100469.67
2022-12-31T04:12:35.282Z,100475.88
2022-12-31T04:17:38.136Z,100475.82
2022-12-31T04:22:41.273Z,100471.80
2022-12-31T04:27:44.079Z,100462.70
2022-12-31T04:32:46.872Z,100456.98
2022-12-31T04:37:49.643Z,100452.45
2022-12-31T04:42:52.470Z,100459.77
2022-12-31T04:47:55.245Z,100461.11
2022-12-31T04:52:58.010Z,100460.66
2022-12-31T04:58:02.381Z,100452.73
2022-12-31T05:03:05.238Z,100443.59
2022-12-31T05:08:09.113Z,100451.19
2022-12-31T05:13:12.073Z,100460.34
2022-12-31T05:18:15.139Z,100467.77
2022-12-31T05:23:18.018Z,100464.73
2022-12-31T05:28:20.878Z,100450.16
2022-12-31T05:33:23.776Z,100460.27
2022-12-31T05:38:26.579Z,100461.55
2022-12-31T05:43:29.411Z,100466.59
2022-12-31T05:48:32.514Z,100462.61
2022-12-31T05:53:35.830Z,100465.11
2022-12-31T05:58:38.624Z,100454.02
2022-12-31T06:03:41.658Z,100451.10
2022-12-31T06:08:44.481Z,100445.70
2022-12-31T06:13:47.311Z,100445.79
2022-12-31T06:18:50.973Z,100446.62
2022-12-31T06:23:53.852Z,100443.75
2022-12-31T06:28:56.569Z,100445.58
2022-12-31T06:34:01.097Z,100448.11
2022-12-31T06:39:03.893Z,100468.12
2022-12-31T06:44:06.730Z,100463.79
2022-12-31T06:49:09.828Z,100467.55
2022-12-31T06:54:13.385Z,100467.23
2022-12-31T06:59:29.254Z,100462.85
2022-12-31T07:04:51.053Z,100466.91
2022-12-31T07:10:44.832Z,100463.57
2022-12-31T07:16:12.466Z,100467.06
2022-12-31T07:21:17.648Z,100485.23
2022-12-31T07:26:30.067Z,100494.73
2022-12-31T07:32:00.968Z,100505.34
2022-12-31T07:37:11.995Z,100498.80
2022-12-31T07:42:53.758Z,100503.86
2022-12-31T07:48:02.277Z,100511.46
2022-12-31T07:53:06.073Z,100506.23
2022-12-31T07:58:56.768Z,100503.77
2022-12-31T08:04:05.338Z,100500.66
2022-12-31T08:09:28.747Z,100502.41
2022-12-31T08:14:31.653Z,100509.48
2022-12-31T08:19:34.745Z,100516.65
2022-12-31T08:24:59.706Z,100521.15
2022-12-31T08:30:16.301Z,100511.89
2022-12-31T08:35:35.358Z,100512.09
2022-12-31T08:40:48.849Z,100517.70
2022-12-31T08:45:53.167Z,100520.89
2022-12-31T08:50:56.395Z,100538.38
2022-12-31T08:56:07.326Z,100539.26
2022-12-31T09:01:10.364Z,100538.39
2022-12-31T09:06:26.706Z,100536.36
2022-12-31T09:11:53.514Z,100533.78
2022-12-31T09:17:09.979Z,100538.84
2022-12-31T09:22:13.670Z,100534.21
2022-12-31T09:27:41.002Z,100523.29
2022-12-31T09:33:09.275Z,100520.56
2022-12-31T09:38:31.368Z,100508.79
2022-12-31T09:43:49.454Z,100484.30
2022-12-31T09:49:49.313Z,100489.23
2022-12-31T09:55:27.783Z,100480.66
2022-12-31T10:00:43.952Z,100465.62
2022-12-31T10:06:08.563Z,100464.98
2022-12-31T10:11:49.395Z,100472.44
2022-12-31T10:17:19.587Z,100471.00
2022-12-31T10:22:44.141Z,100470.05
2022-12-31T10:27:57.697Z,100460.58
2022-12-31T10:33:29.368Z,100463.29
2022-12-31T10:39:00.517Z,100455.10
2022-12-31T10:44:36.647Z,100451.19
2022-12-31T10:50:07.305Z,100449.80
2022-12-31T10:55:50.212Z,100449.39
2022-12-31T11:01:11.591Z,100422.17
2022-12-31T11:06:29.594Z,100412.89
2022-12-31T11:12:19.779Z,100403.92
2022-12-31T11:17:37.175Z,100398.39
2022-12-31T11:23:11.136Z,100365.95
2022-12-31T11:28:36.884Z,100363.25
2022-12-31T11:34:25.988Z,100382.68
2022-12-31T11:40:24.560Z,100389.21
2022-12-31T11:46:19.273Z,100402.16
2022-12-31T11:51:50.468Z,100384.88
2022-12-31T11:57:18.578Z,100363.52
2022-12-31T12:02:34.931Z,100379.98
2022-12-31T12:07:37.728Z,100375.70
2022-12-31T12:12:43.439Z,100372.95
2022-12-31T12:17:53.890Z,100391.53
2022-12-31T12:22:58.574Z,100381.39
2022-12-31T12:28:44.175Z,100370.54
2022-12-31T12:33:49.192Z,100365.23
2022-12-31T12:39:04.419Z,100369.63
2022-12-31T12:44:13.701Z,100353.25
2022-12-31T12:49:26.555Z,100342.06
2022-12-31T12:54:37.031Z,100338.44
2022-12-31T13:00:02.449Z,100337.11
2022-12-31T13:05:35.744Z,100337.45
2022-12-31T13:10:38.581Z,100343.02
2022-12-31T13:15:58.233Z,100343.64
2022-12-31T13:21:07.199Z,100335.68
2022-12-31T13:26:19.223Z,100321.83
2022-12-31T13:31:29.536Z,100315.43
2022-12-31T13:36:32.953Z,100318.31
2022-12-31T13:41:59.293Z,100316.42
2022-12-31T13:47:30.305Z,100320.71
2022-12-31T13:52:42.762Z,100329.66
2022-12-31T13:57:49.785Z,100325.36
2022-12-31T14:03:26.736Z,100338.59
2022-12-31T14:08:29.637Z,100343.30
2022-12-31T14:14:01.727Z,100342.60
2022-12-31T14:19:55.506Z,100350.58
2022-12-31T14:24:59.110Z,100355.64
2022-12-31T14:30:06.815Z,100349.20
2022-12-31T14:36:09.997Z,100353.06
2022-12-31T14:41:33.838Z,100369.05
2022-12-31T14:46:52.620Z,100370.77
2022-12-31T14:52:07.441Z,100361.91
2022-12-31T14:57:54.464Z,100363.73
2022-12-31T15:03:13.501Z,100367.22
2022-12-31T15:08:43.006Z,100367.48
2022-12-31T15:14:04.789Z,100369.03
2022-12-31T15:19:26.132Z,100360.79
2022-12-31T15:24:30.723Z,100359.13
2022-12-31T15:29:36.883Z,100352.29
2022-12-31T15:34:39.846Z,100356.51
2022-12-31T15:39:43.189Z,100354.02
2022-12-31T15:44:52.256Z,100345.48
2022-12-31T15:49:58.378Z,100346.13
2022-12-31T15:55:01.203Z,100338.70
2022-12-31T16:00:19.177Z,100343.09
2022-12-31T16:05:25.565Z,100344.44
2022-12-31T16:10:30.975Z,100345.64
2022-12-31T16:15:34.283Z,100352.86
2022-12-31T16:20:46.475Z,100353.58
2022-12-31T16:25:50.969Z,100359.52
2022-12-31T16:31:07.023Z,100369.63
2022-12-31T16:36:23.109Z,100380.39
2022-12-31T16:41:25.868Z,100385.71
2022-12-31T16:46:30.946Z,100386.58
2022-12-31T16:51:34.173Z,100378.11
2022-12-31T16:56:38.604Z,100373.58
2022-12-31T17:01:41.669Z,100369.21
2022-12-31T17:06:44.840Z,100369.00
2022-12-31T17:11:52.378Z,100369.27
2022-12-31T17:17:06.989Z,100375.21
2022-12-31T17:22:49.505Z,100368.95
2022-12-31T17:28:05.410Z,100377.08
2022-12-31T17:33:10.963Z,100381.45
2022-12-31T17:38:23.050Z,100382.31
2022-12-31T17:43:28.737Z,100386.55
2022-12-31T17:48:36.342Z,100385.46
2022-12-31T17:53:39.267Z,100391.80
2022-12-31T17:58:52.664Z,100395.86
2022-12-31T18:03:56.836Z,100395.66
2022-12-31T18:09:00.988Z,100395.84
2022-12-31T18:14:03.875Z,100399.17
2022-12-31T18:19:37.709Z,100407.49
2022-12-31T18:24:38.696Z,100408.16
2022-12-31T18:29:41.448Z,100417.02
2022-12-31T18:34:44.374Z,100413.39
2022-12-31T18:39:47.220Z,100410.45
2022-12-31T18:44:49.998Z,100413.33
2022-12-31T18:49:52.903Z,100415.14
2022-12-31T18:54:55.744Z,100420.77
2022-12-31T18:59:58.477Z,100405.48
2022-12-31T19:05:01.163Z,100405.34
2022-12-31T19:10:04.893Z,100416.77
2022-12-31T19:15:24.894Z,100420.00
2022-12-31T19:20:28.552Z,100433.48
2022-12-31T19:25:35.898Z,100448.25
2022-12-31T19:30:38.862Z,100445.48
2022-12-31T19:35:42.000Z,100445.97
2022-12-31T19:40:44.815Z,100442.88
2022-12-31T19:45:48.137Z,100436.86
2022-12-31T19:50:52.851Z,100450.14
2022-12-31T19:55:55.712Z,100450.82
2022-12-31T20:01:02.959Z,100447.04
2022-12-31T20:06:08.815Z,100443.91
2022-12-31T20:11:21.015Z,100440.83
2022-12-31T20:16:26.714Z,100447.88
2022-12-31T20:21:29.944Z,100454.74
2022-12-31T20:26:32.693Z,100447.31
2022-12-31T20:31:35.544Z,100438.45
2022-12-31T20:36:39.629Z,100432.41
2022-12-31T20:41:42.439Z,100443.55
2022-12-31T20:46:45.617Z,100449.65
2022-12-31T20:51:52.075Z,100459.78
2022-12-31T20:56:55.256Z,100471.65
2022-12-31T21:07:20.864Z,100454.95
2022-12-31T21:12:43.544Z,100465.54
2022-12-31T21:17:46.492Z,100461.73
2022-12-31T21:22:49.284Z,100459.54
2022-12-31T21:27:52.066Z,100460.11
2022-12-31T21:32:55.902Z,100463.05
2022-12-31T21:38:03.233Z,100465.45
2022-12-31T21:43:06.090Z,100467.96
2022-12-31T21:48:20.552Z,100469.14
2022-12-31T21:53:30.455Z,100465.27
2022-12-31T21:58:41.933Z,100464.39
2022-12-31T22:03:45.097Z,100463.48
2022-12-31T22:08:50.634Z,100464.52
2022-12-31T22:13:53.706Z,100462.70
2022-12-31T22:18:56.638Z,100465.45
2022-12-31T22:23:59.591Z,100455.63
2022-12-31T22:29:02.323Z,100464.35
2022-12-31T22:34:05.084Z,100466.98
2022-12-31T22:39:09.616Z,100467.01
2022-12-31T22:44:12.692Z,100459.78
2022-12-31T22:49:17.192Z,100456.32
2022-12-31T22:54:20.306Z,100451.73
2022-12-31T22:59:24.396Z,100459.16
2022-12-31T23:04:27.298Z,100469.48
2022-12-31T23:09:48.673Z,100460.29
2022-12-31T23:15:10.444Z,100464.68
2022-12-31T23:20:40.038Z,100456.40
2022-12-31T23:25:49.710Z,100466.77
2022-12-31T23:30:53.682Z,100471.62
2022-12-31T23:36:04.861Z,100463.08
2022-12-31T23:41:18.982Z,100455.46
2022-12-31T23:46:21.797Z,100456.37
2022-12-31T23:51:24.653Z,100464.16
2022-12-31T23:56:27.525Z,100464.48
